Time;durP1;ratioP1;P1;durP2;ratioP2;P2;SDS_P1;SDS_P2;PMS_P1;PMS_P2;Temp;Humidity;BMP_temperature;BMP_pressure;BME280_temperature;BME280_humidity;BME280_pressure;Samples;Min_cycle;Max_cycle;Signal;HPM_P1;HPM_P2
2022/08/21 00:01:43;;;;;;;10.65;2.13;;;;;;;15.92;100.00;98115.66;5061314;28;20024;-93
2022/08/21 00:04:13;;;;;;;16.77;2.88;;;;;;;15.87;100.00;98115.81;5059703;28;20039;-93
2022/08/21 00:06:38;;;;;;;13.52;2.33;;;;;;;15.91;100.00;98113.94;5069057;28;20111;-91
2022/08/21 00:09:06;;;;;;;10.75;2.40;;;;;;;15.99;100.00;98117.09;5067756;28;20575;-92
2022/08/21 00:11:33;;;;;;;13.02;2.10;;;;;;;15.93;100.00;98119.97;5067037;28;20082;-94
2022/08/21 00:13:58;;;;;;;13.40;2.00;;;;;;;15.91;100.00;98115.69;5064238;28;20052;-94
2022/08/21 00:16:24;;;;;;;12.18;2.55;;;;;;;15.80;100.00;98111.72;5065270;28;20927;-93
2022/08/21 00:18:50;;;;;;;9.35;2.15;;;;;;;15.89;100.00;98114.91;5048412;28;20039;-93
2022/08/21 00:21:15;;;;;;;14.02;2.55;;;;;;;15.83;100.00;98134.41;5067566;28;20032;-92
2022/08/21 00:23:41;;;;;;;11.10;2.13;;;;;;;15.98;100.00;98119.78;5062684;28;20025;-92
2022/08/21 00:26:07;;;;;;;14.23;2.20;;;;;;;15.91;100.00;98124.44;5057901;28;20385;-92
2022/08/21 00:28:33;;;;;;;13.75;2.60;;;;;;;16.17;100.00;98118.09;5063316;28;20040;-92
2022/08/21 00:30:59;;;;;;;12.13;2.38;;;;;;;16.15;100.00;98114.66;5049829;28;20234;-92
2022/08/21 00:33:26;;;;;;;14.32;1.98;;;;;;;16.06;100.00;98122.09;5058555;28;20033;-93
2022/08/21 00:35:51;;;;;;;13.00;2.92;;;;;;;16.11;100.00;98117.50;5048526;28;20036;-91
2022/08/21 00:38:17;;;;;;;12.68;2.63;;;;;;;16.28;100.00;98119.41;5055108;28;20392;-91
2022/08/21 00:40:55;;;;;;;11.52;1.98;;;;;;;16.12;100.00;98108.69;5063466;28;20492;-92
2022/08/21 00:43:27;;;;;;;15.05;2.58;;;;;;;15.98;100.00;98120.63;5048415;28;20111;-92
2022/08/21 00:45:54;;;;;;;11.35;2.22;;;;;;;16.11;100.00;98122.75;5068694;28;20850;-93
2022/08/21 00:48:20;;;;;;;13.90;2.28;;;;;;;16.38;100.00;98131.25;5066822;28;20064;-94
2022/08/21 00:51:05;;;;;;;11.45;2.55;;;;;;;16.21;100.00;98124.94;5063031;28;20036;-94
2022/08/21 00:53:32;;;;;;;9.52;1.83;;;;;;;16.23;100.00;98119.63;5074191;28;20020;-95
2022/08/21 00:55:59;;;;;;;13.13;2.30;;;;;;;16.13;100.00;98124.41;5083792;28;20375;-92
2022/08/21 00:58:30;;;;;;;11.45;2.50;;;;;;;16.20;100.00;98122.38;5052079;28;20028;-93
2022/08/21 01:00:56;;;;;;;14.32;2.47;;;;;;;16.44;100.00;98117.00;5040155;28;20052;-91
2022/08/21 01:03:24;;;;;;;13.70;2.58;;;;;;;16.49;100.00;98110.59;5061177;28;20039;-92
2022/08/21 01:05:56;;;;;;;13.57;2.53;;;;;;;16.23;100.00;98105.59;5076762;28;20032;-92
2022/08/21 01:08:23;;;;;;;11.10;2.10;;;;;;;16.48;100.00;98115.94;5071966;28;20044;-92
2022/08/21 01:10:49;;;;;;;9.40;2.22;;;;;;;16.23;100.00;98117.00;5064196;28;20024;-91
2022/08/21 01:13:18;;;;;;;11.23;2.38;;;;;;;15.99;100.00;98122.34;5054553;28;20553;-91
2022/08/21 01:15:47;;;;;;;11.90;2.15;;;;;;;16.22;100.00;98117.91;5044911;28;20032;-92
2022/08/21 01:18:14;;;;;;;11.95;2.40;;;;;;;16.35;100.00;98126.13;5062770;28;20585;-91
2022/08/21 01:20:44;;;;;;;14.23;2.83;;;;;;;16.37;100.00;98125.13;5060749;28;20158;-93
2022/08/21 01:23:10;;;;;;;9.73;2.25;;;;;;;16.34;100.00;98120.00;5043538;28;20032;-94
2022/08/21 01:25:36;;;;;;;13.05;2.58;;;;;;;16.14;100.00;98123.47;5063411;28;20067;-93
2022/08/21 01:28:09;;;;;;;11.85;2.35;;;;;;;15.91;100.00;98121.81;5058922;28;20029;-93
2022/08/21 01:30:38;;;;;;;10.07;2.47;;;;;;;16.31;100.00;98124.53;5057140;28;20541;-94
2022/08/21 01:33:07;;;;;;;13.65;2.83;;;;;;;16.21;100.00;98121.44;5059036;28;20036;-91
2022/08/21 01:35:33;;;;;;;14.30;2.50;;;;;;;15.85;100.00;98124.69;5062158;28;20509;-93
2022/08/21 01:37:58;;;;;;;10.65;2.35;;;;;;;15.79;100.00;98136.31;5060668;28;20039;-91
2022/08/21 01:40:24;;;;;;;10.60;2.58;;;;;;;15.89;100.00;98136.78;5063158;28;20054;-92
2022/08/21 01:42:50;;;;;;;11.10;2.40;;;;;;;15.84;100.00;98134.34;5062657;28;20032;-93
2022/08/21 01:45:16;;;;;;;11.68;2.63;;;;;;;15.94;100.00;98133.97;5046470;28;20073;-91
2022/08/21 01:47:43;;;;;;;13.25;2.35;;;;;;;15.76;100.00;98149.53;5047732;28;20036;-91
2022/08/21 01:50:12;;;;;;;10.23;2.60;;;;;;;16.11;100.00;98147.28;5060759;28;20064;-92
2022/08/21 01:52:38;;;;;;;12.95;2.42;;;;;;;15.98;100.00;98144.31;5061117;28;20610;-91
2022/08/21 01:55:08;;;;;;;11.13;2.50;;;;;;;16.11;100.00;98142.03;5045880;28;20088;-94
2022/08/21 01:57:33;;;;;;;12.45;2.60;;;;;;;16.04;100.00;98138.78;5043046;28;20106;-93
2022/08/21 02:00:00;;;;;;;12.52;2.65;;;;;;;15.91;100.00;98145.47;5041313;28;20111;-93
2022/08/21 02:02:26;;;;;;;13.35;3.13;;;;;;;16.00;100.00;98144.25;5062415;28;20774;-91
2022/08/21 02:04:51;;;;;;;10.70;2.53;;;;;;;16.17;100.00;98133.88;5042731;28;20033;-92
2022/08/21 02:07:18;;;;;;;10.75;2.40;;;;;;;16.16;100.00;98129.53;5044085;28;20791;-92
2022/08/21 02:09:43;;;;;;;11.60;2.40;;;;;;;15.97;100.00;98134.69;5045872;28;20027;-93
2022/08/21 02:12:10;;;;;;;14.65;2.90;;;;;;;15.92;100.00;98130.53;5043516;28;20028;-93
2022/08/21 02:14:36;;;;;;;12.10;2.92;;;;;;;15.93;100.00;98127.84;5063876;28;20409;-91
2022/08/21 02:17:02;;;;;;;13.35;3.08;;;;;;;15.92;100.00;98133.19;5059555;28;20138;-92
2022/08/21 02:19:27;;;;;;;13.68;2.78;;;;;;;15.93;100.00;98150.69;5049719;28;20059;-93
2022/08/21 02:21:53;;;;;;;14.43;2.50;;;;;;;16.10;100.00;98144.72;5042065;28;20496;-91
2022/08/21 02:24:18;;;;;;;10.48;2.75;;;;;;;16.20;100.00;98139.00;5060409;28;20029;-92
2022/08/21 02:26:44;;;;;;;12.05;2.33;;;;;;;16.14;100.00;98138.41;5059294;28;20094;-92
2022/08/21 02:29:09;;;;;;;14.30;2.80;;;;;;;16.25;100.00;98130.06;5062809;28;20033;-92
2022/08/21 02:31:35;;;;;;;14.15;2.80;;;;;;;16.44;100.00;98117.84;5062846;28;20241;-94
2022/08/21 02:34:01;;;;;;;10.82;2.58;;;;;;;16.02;100.00;98124.84;5056130;28;20143;-92
2022/08/21 02:36:27;;;;;;;16.35;2.90;;;;;;;16.10;100.00;98126.31;5046803;28;20456;-93
2022/08/21 02:38:53;;;;;;;12.90;2.50;;;;;;;16.14;100.00;98120.84;5047058;28;20451;-93
2022/08/21 02:41:21;;;;;;;9.45;2.53;;;;;;;16.10;100.00;98113.16;5057051;28;20059;-92
2022/08/21 02:43:46;;;;;;;12.63;2.90;;;;;;;15.96;100.00;98109.31;5062166;28;20060;-93
2022/08/21 02:46:14;;;;;;;14.15;2.45;;;;;;;16.10;100.00;98115.78;5062273;28;20121;-92
2022/08/21 02:48:40;;;;;;;9.95;2.47;;;;;;;15.82;100.00;98124.81;5064959;28;20492;-94
2022/08/21 02:51:09;;;;;;;12.20;2.88;;;;;;;15.82;100.00;98130.06;5047188;28;20434;-93
2022/08/21 02:53:35;;;;;;;10.43;2.80;;;;;;;15.93;100.00;98119.13;5038949;28;20374;-92
2022/08/21 02:56:04;;;;;;;9.55;2.53;;;;;;;15.92;100.00;98118.28;5042476;28;20029;-93
2022/08/21 02:58:34;;;;;;;12.18;2.53;;;;;;;15.91;100.00;98119.19;5063572;28;20461;-93
2022/08/21 03:01:00;;;;;;;12.60;2.67;;;;;;;15.61;100.00;98122.09;5058277;28;20086;-91
2022/08/21 03:03:27;;;;;;;14.27;2.65;;;;;;;15.70;100.00;98108.59;5063869;28;20032;-94
2022/08/21 03:05:54;;;;;;;11.02;2.63;;;;;;;15.96;100.00;98113.72;5044191;28;20558;-91
2022/08/21 03:08:21;;;;;;;14.20;2.83;;;;;;;15.87;100.00;98112.34;5058882;28;20113;-93
2022/08/21 03:10:50;;;;;;;12.90;3.03;;;;;;;15.63;100.00;98117.63;5078496;28;20092;-94
2022/08/21 03:13:17;;;;;;;11.15;2.50;;;;;;;15.80;100.00;98108.25;5075654;28;20032;-93
2022/08/21 03:15:43;;;;;;;13.23;2.55;;;;;;;15.84;100.00;98108.06;5069598;28;20479;-92
2022/08/21 03:18:11;;;;;;;10.77;2.80;;;;;;;15.83;100.00;98100.22;5061167;28;20060;-93
2022/08/21 03:20:38;;;;;;;12.68;2.97;;;;;;;15.82;100.00;98093.25;5086708;28;20036;-91
2022/08/21 03:23:05;;;;;;;14.88;3.50;;;;;;;15.65;100.00;98096.53;5084885;28;20040;-95
2022/08/21 03:25:33;;;;;;;21.90;3.55;;;;;;;15.79;100.00;98088.09;5067665;28;20499;-94
2022/08/21 03:28:00;;;;;;;11.63;2.60;;;;;;;15.85;100.00;98094.00;5046179;28;20032;-92
2022/08/21 03:30:26;;;;;;;15.10;2.85;;;;;;;16.00;100.00;98095.13;5063340;28;20204;-93
2022/08/21 03:32:52;;;;;;;10.38;2.40;;;;;;;15.94;100.00;98098.00;5040876;28;20135;-93
2022/08/21 03:35:19;;;;;;;12.30;2.50;;;;;;;15.78;100.00;98089.88;5044885;28;20146;-93
2022/08/21 03:37:45;;;;;;;17.45;3.33;;;;;;;15.80;100.00;98097.75;5063551;28;20032;-91
2022/08/21 03:40:12;;;;;;;14.40;2.53;;;;;;;15.54;100.00;98112.75;5046340;28;20404;-93
2022/08/21 03:42:38;;;;;;;11.43;2.65;;;;;;;15.76;100.00;98109.25;5062379;28;20028;-93
2022/08/21 03:45:07;;;;;;;12.20;3.13;;;;;;;15.96;100.00;98103.19;5068326;28;20856;-94
2022/08/21 03:47:33;;;;;;;14.82;2.80;;;;;;;15.69;100.00;98113.91;5064533;28;20229;-91
2022/08/21 03:49:59;;;;;;;13.23;2.83;;;;;;;15.77;100.00;98119.72;5049827;28;20590;-90
2022/08/21 03:52:25;;;;;;;14.30;2.80;;;;;;;15.77;100.00;98135.50;5066674;28;20024;-93
2022/08/21 03:54:51;;;;;;;16.20;3.28;;;;;;;15.75;100.00;98141.72;5046236;28;20427;-90
2022/08/21 03:57:16;;;;;;;11.45;2.50;;;;;;;15.45;100.00;98155.13;5037950;28;20035;-90
2022/08/21 03:59:43;;;;;;;15.63;3.33;;;;;;;15.45;100.00;98165.63;5042142;28;20546;-90
2022/08/21 04:02:10;;;;;;;17.10;3.33;;;;;;;15.59;100.00;98162.47;5043143;28;20396;-91
2022/08/21 04:04:36;;;;;;;12.05;2.97;;;;;;;15.43;100.00;98173.59;5044650;28;20048;-90
2022/08/21 04:07:02;;;;;;;16.38;3.90;;;;;;;15.79;100.00;98169.59;5039238;28;20091;-91
2022/08/21 04:09:29;;;;;;;17.85;4.35;;;;;;;15.95;100.00;98154.09;5036730;28;20779;-90
2022/08/21 04:11:55;;;;;;;15.45;3.92;;;;;;;16.12;100.00;98156.03;5046086;28;20044;-89
2022/08/21 04:14:21;;;;;;;16.20;4.20;;;;;;;16.12;100.00;98156.03;5043567;28;20025;-90
2022/08/21 04:16:46;;;;;;;13.80;3.50;;;;;;;15.92;100.00;98152.47;5046052;28;20760;-90
2022/08/21 04:19:13;;;;;;;17.35;4.00;;;;;;;16.06;100.00;98153.66;5043468;28;20056;-90
2022/08/21 04:21:39;;;;;;;16.73;5.30;;;;;;;16.05;100.00;98160.69;5054124;28;20119;-89
2022/08/21 04:24:07;;;;;;;18.83;6.30;;;;;;;16.08;100.00;98159.72;5037671;28;20036;-89
2022/08/21 04:26:34;;;;;;;19.55;5.55;;;;;;;16.06;100.00;98167.69;5041301;28;20032;-89
2022/08/21 04:29:00;;;;;;;16.75;4.80;;;;;;;15.87;100.00;98172.81;5039052;28;20055;-88
2022/08/21 04:31:26;;;;;;;12.50;3.90;;;;;;;16.00;100.00;98174.00;5039792;28;20036;-91
2022/08/21 04:33:52;;;;;;;14.32;3.33;;;;;;;15.56;100.00;98186.25;5040271;28;20033;-90
2022/08/21 04:36:17;;;;;;;12.18;3.50;;;;;;;15.72;100.00;98191.78;5040877;28;20037;-90
2022/08/21 04:38:43;;;;;;;12.88;3.65;;;;;;;15.84;100.00;98192.19;5040488;28;20052;-90
2022/08/21 04:41:12;;;;;;;18.02;3.80;;;;;;;15.97;100.00;98195.19;5041949;28;20033;-90
2022/08/21 04:43:39;;;;;;;13.07;4.00;;;;;;;15.80;100.00;98192.38;5038166;28;20029;-90
2022/08/21 04:46:07;;;;;;;13.88;3.63;;;;;;;15.48;100.00;98203.19;5037925;28;20061;-91
2022/08/21 04:48:33;;;;;;;12.65;3.63;;;;;;;15.66;100.00;98201.63;5040013;28;20151;-90
2022/08/21 04:51:07;;;;;;;12.35;3.85;;;;;;;15.67;100.00;98205.97;5039361;28;20033;-88
2022/08/21 04:53:35;;;;;;;12.85;3.80;;;;;;;15.58;100.00;98216.84;5058258;28;20133;-90
2022/08/21 04:56:11;;;;;;;12.45;3.92;;;;;;;15.51;100.00;98218.84;5060045;28;20040;-91
2022/08/21 04:58:38;;;;;;;12.82;4.03;;;;;;;15.73;100.00;98225.03;5041795;28;20028;-90
2022/08/21 05:01:08;;;;;;;17.48;4.45;;;;;;;15.90;100.00;98219.19;5065347;28;20056;-91
2022/08/21 05:03:36;;;;;;;14.63;4.57;;;;;;;16.19;100.00;98205.69;5053998;28;20163;-91
2022/08/21 05:06:06;;;;;;;12.68;4.80;;;;;;;16.03;100.00;98216.00;5061320;28;20805;-89
2022/08/21 05:08:33;;;;;;;13.75;5.25;;;;;;;15.67;100.00;98231.38;5039350;28;20059;-90
2022/08/21 05:10:59;;;;;;;12.35;4.32;;;;;;;15.61;100.00;98231.63;5061694;28;20043;-91
2022/08/21 05:13:25;;;;;;;15.02;4.15;;;;;;;15.82;100.00;98222.97;5038467;28;20058;-89
2022/08/21 05:15:50;;;;;;;13.35;4.72;;;;;;;15.79;100.00;98230.06;5042575;28;20511;-89
2022/08/21 05:18:16;;;;;;;10.45;3.90;;;;;;;16.08;100.00;98222.84;5044514;28;20138;-90
2022/08/21 05:20:41;;;;;;;16.17;3.95;;;;;;;16.22;100.00;98220.50;5063949;28;20387;-89
2022/08/21 05:23:10;;;;;;;12.93;4.10;;;;;;;16.18;100.00;98219.75;5063253;28;20086;-89
2022/08/21 05:25:35;;;;;;;11.93;3.70;;;;;;;15.88;100.00;98221.88;5077744;28;20114;-90
2022/08/21 05:28:01;;;;;;;14.43;3.88;;;;;;;15.98;100.00;98227.63;5089174;28;20032;-88
2022/08/21 05:30:27;;;;;;;12.73;3.97;;;;;;;15.85;100.00;98232.47;5057459;28;20463;-88
2022/08/21 05:32:58;;;;;;;14.98;4.90;;;;;;;15.93;100.00;98237.47;5070119;28;20021;-89
2022/08/21 05:35:23;;;;;;;15.35;3.90;;;;;;;16.13;100.00;98227.00;5071493;28;20040;-90
2022/08/21 05:37:49;;;;;;;14.50;4.40;;;;;;;16.03;100.00;98242.31;5086571;28;20025;-90
2022/08/21 05:40:14;;;;;;;16.05;4.65;;;;;;;16.12;100.00;98241.06;5066482;28;20478;-90
2022/08/21 05:42:40;;;;;;;18.08;4.90;;;;;;;16.23;100.00;98245.03;5062665;28;20703;-89
2022/08/21 05:45:06;;;;;;;12.50;4.10;;;;;;;16.30;100.00;98244.72;5047437;28;20052;-92
2022/08/21 05:47:31;;;;;;;12.30;4.00;;;;;;;16.10;100.00;98239.41;5044277;28;20036;-91
2022/08/21 05:49:57;;;;;;;12.15;4.38;;;;;;;16.06;100.00;98243.09;5065616;28;20089;-92
2022/08/21 05:52:23;;;;;;;13.90;4.18;;;;;;;16.33;100.00;98249.88;5042882;28;20031;-91
2022/08/21 05:54:49;;;;;;;13.07;3.90;;;;;;;16.28;100.00;98251.81;5063983;28;20053;-92
2022/08/21 05:57:15;;;;;;;11.20;3.58;;;;;;;16.14;100.00;98238.38;5044896;28;20032;-91
2022/08/21 05:59:41;;;;;;;9.25;3.10;;;;;;;16.47;100.00;98241.41;5060239;28;20519;-91
2022/08/21 06:02:08;;;;;;;10.95;3.13;;;;;;;16.78;100.00;98234.84;5040803;28;20032;-92
2022/08/21 06:04:37;;;;;;;12.00;3.20;;;;;;;16.71;100.00;98229.00;5057622;28;20841;-89
2022/08/21 06:07:03;;;;;;;11.65;3.38;;;;;;;16.57;100.00;98231.34;5044654;28;20123;-91
2022/08/21 06:09:28;;;;;;;14.93;3.33;;;;;;;16.55;100.00;98233.19;5063175;28;20231;-90
2022/08/21 06:11:54;;;;;;;14.75;3.33;;;;;;;16.62;100.00;98217.97;5061235;28;20102;-90
2022/08/21 06:14:19;;;;;;;11.50;3.20;;;;;;;16.54;100.00;98232.31;5061179;28;20029;-91
2022/08/21 06:16:45;;;;;;;10.90;2.95;;;;;;;16.37;100.00;98232.19;5046673;28;20130;-90
2022/08/21 06:19:11;;;;;;;12.52;3.08;;;;;;;16.30;100.00;98222.84;5063309;28;20036;-90
2022/08/21 06:21:37;;;;;;;15.23;3.03;;;;;;;16.67;100.00;98218.66;5063926;28;20038;-91
2022/08/21 06:24:04;;;;;;;12.43;3.33;;;;;;;16.60;100.00;98215.41;5054782;28;20108;-92
2022/08/21 06:26:30;;;;;;;12.43;2.92;;;;;;;16.68;100.00;98213.31;5039735;28;20523;-90
2022/08/21 06:28:57;;;;;;;12.02;3.05;;;;;;;16.58;100.00;98222.53;5062031;28;20040;-90
2022/08/21 06:31:25;;;;;;;13.60;3.20;;;;;;;16.62;100.00;98218.84;5062679;28;20037;-91
2022/08/21 06:33:51;;;;;;;13.80;3.05;;;;;;;16.30;100.00;98223.69;5043894;28;20122;-91
2022/08/21 06:36:17;;;;;;;11.18;2.88;;;;;;;16.65;100.00;98224.00;5056957;28;20031;-91
2022/08/21 06:38:43;;;;;;;9.07;2.95;;;;;;;16.76;100.00;98220.91;5056826;28;20032;-92
2022/08/21 06:41:09;;;;;;;10.43;2.80;;;;;;;16.67;100.00;98226.56;5058802;28;20479;-92
2022/08/21 06:43:35;;;;;;;13.60;3.05;;;;;;;16.10;100.00;98221.84;5057186;28;20191;-92
2022/08/21 06:46:00;;;;;;;10.95;2.92;;;;;;;16.52;100.00;98217.50;5041702;28;21517;-89
2022/08/21 06:48:26;;;;;;;11.38;3.50;;;;;;;16.44;100.00;98219.63;5042116;28;20029;-91
2022/08/21 06:50:52;;;;;;;11.55;3.17;;;;;;;16.41;100.00;98214.47;5045205;28;20024;-92
2022/08/21 06:53:20;;;;;;;14.07;3.10;;;;;;;16.13;100.00;98224.38;5053933;28;20021;-92
2022/08/21 06:55:47;;;;;;;13.32;3.10;;;;;;;16.35;100.00;98226.13;5056966;28;20017;-90
2022/08/21 06:58:13;;;;;;;10.32;3.30;;;;;;;16.13;100.00;98223.50;5043791;28;20024;-93
2022/08/21 07:00:42;;;;;;;11.50;3.38;;;;;;;16.80;100.00;98216.34;5060516;28;20037;-92
2022/08/21 07:03:15;;;;;;;10.35;3.20;;;;;;;16.73;100.00;98203.44;5059662;28;20511;-91
2022/08/21 07:05:40;;;;;;;12.48;3.72;;;;;;;16.89;100.00;98210.72;5063060;28;20082;-89
2022/08/21 07:08:06;;;;;;;13.20;3.03;;;;;;;16.65;100.00;98208.19;5039602;28;20685;-92
2022/08/21 07:10:32;;;;;;;11.27;3.47;;;;;;;16.95;100.00;98210.47;5058739;28;20089;-92
2022/08/21 07:12:57;;;;;;;11.07;3.15;;;;;;;17.18;100.00;98208.59;5060040;28;20736;-89
2022/08/21 07:15:23;;;;;;;12.20;3.30;;;;;;;16.86;100.00;98216.94;5044539;28;20032;-90
2022/08/21 07:17:48;;;;;;;12.25;3.75;;;;;;;17.26;100.00;98218.75;5066711;28;20028;-90
2022/08/21 07:20:14;;;;;;;9.15;3.00;;;;;;;17.03;100.00;98218.84;5065334;28;20033;-90
2022/08/21 07:22:40;;;;;;;12.82;3.08;;;;;;;17.03;100.00;98228.56;5045660;28;20118;-90
2022/08/21 07:25:07;;;;;;;15.82;3.38;;;;;;;16.59;100.00;98219.00;5061135;28;20027;-90
2022/08/21 07:27:33;;;;;;;10.93;2.65;;;;;;;16.41;100.00;98225.00;5063927;28;20098;-90
2022/08/21 07:29:59;;;;;;;10.13;2.85;;;;;;;16.85;100.00;98220.50;5065350;28;20060;-93
2022/08/21 07:32:24;;;;;;;10.98;2.67;;;;;;;16.64;100.00;98219.63;5066237;28;20082;-90
2022/08/21 07:34:50;;;;;;;14.07;3.05;;;;;;;16.83;100.00;98222.34;5067761;28;20538;-91
2022/08/21 07:37:16;;;;;;;12.00;2.05;;;;;;;16.69;100.00;98214.19;5065253;28;20036;-92
2022/08/21 07:39:41;;;;;;;12.13;2.35;;;;;;;16.54;100.00;98220.97;5062347;28;20058;-91
2022/08/21 07:42:07;;;;;;;10.32;2.60;;;;;;;16.72;100.00;98217.53;5072882;28;20005;-90
2022/08/21 07:44:34;;;;;;;12.95;2.53;;;;;;;16.53;100.00;98219.22;5091112;28;20036;-90
2022/08/21 07:47:01;;;;;;;8.77;2.33;;;;;;;16.57;100.00;98219.97;5068703;28;20118;-90
2022/08/21 07:49:27;;;;;;;12.73;2.50;;;;;;;16.89;100.00;98222.09;5069105;28;20028;-90
2022/08/21 07:51:53;;;;;;;10.70;2.72;;;;;;;17.09;100.00;98219.53;5072625;28;20048;-90
2022/08/21 07:54:19;;;;;;;13.20;2.75;;;;;;;17.03;100.00;98218.00;5084025;28;20047;-90
2022/08/21 07:56:45;;;;;;;12.95;2.70;;;;;;;17.20;100.00;98218.13;5078553;28;20036;-91
2022/08/21 07:59:11;;;;;;;7.20;2.28;;;;;;;17.20;100.00;98222.53;5049110;28;20028;-91
2022/08/21 08:01:36;;;;;;;9.50;2.55;;;;;;;17.40;100.00;98219.84;5071350;28;20035;-94
2022/08/21 08:04:03;;;;;;;12.77;2.78;;;;;;;17.47;100.00;98223.06;5066905;28;20024;-91
2022/08/21 08:06:30;;;;;;;10.95;2.85;;;;;;;17.21;100.00;98222.47;5061847;28;20039;-90
2022/08/21 08:08:56;;;;;;;11.20;2.50;;;;;;;17.30;100.00;98220.34;5067224;28;20028;-91
2022/08/21 08:11:22;;;;;;;9.65;2.47;;;;;;;17.05;100.00;98222.28;5064570;28;20029;-91
2022/08/21 08:13:51;;;;;;;13.35;2.58;;;;;;;17.39;100.00;98222.56;5039565;28;20154;-92
2022/08/21 08:16:17;;;;;;;12.27;3.22;;;;;;;17.51;100.00;98222.00;5057003;28;20024;-92
2022/08/21 08:18:44;;;;;;;9.35;2.30;;;;;;;16.81;100.00;98228.59;5045379;28;20163;-94
2022/08/21 08:21:11;;;;;;;10.88;2.65;;;;;;;16.81;100.00;98218.06;5061695;28;20053;-92
2022/08/21 08:23:37;;;;;;;14.98;2.95;;;;;;;17.25;100.00;98219.72;5041348;28;20477;-93
2022/08/21 08:26:03;;;;;;;12.82;2.80;;;;;;;17.32;100.00;98216.72;5039205;28;20043;-93
2022/08/21 08:28:31;;;;;;;11.23;2.40;;;;;;;17.28;100.00;98206.38;5061384;28;20052;-93
2022/08/21 08:30:58;;;;;;;10.32;2.10;;;;;;;16.87;100.00;98204.66;5065607;28;20031;-94
2022/08/21 08:33:23;;;;;;;9.77;2.13;;;;;;;17.75;100.00;98208.59;5044887;28;20708;-93
2022/08/21 08:35:51;;;;;;;8.35;1.75;;;;;;;17.78;100.00;98194.44;5066865;28;20050;-94
2022/08/21 08:38:19;;;;;;;11.73;2.03;;;;;;;17.53;100.00;98201.69;5061784;28;20032;-94
2022/08/21 08:40:48;;;;;;;12.75;1.98;;;;;;;17.60;100.00;98201.41;5064313;28;20086;-90
2022/08/21 08:43:14;;;;;;;9.00;2.42;;;;;;;17.57;100.00;98195.34;5060679;28;20024;-92
2022/08/21 08:45:44;;;;;;;8.35;1.70;;;;;;;17.70;100.00;98207.97;5063040;28;20126;-91
2022/08/21 08:48:21;;;;;;;9.38;1.85;;;;;;;17.65;100.00;98216.09;5061936;28;20020;-90
2022/08/21 08:50:55;;;;;;;8.93;2.00;;;;;;;17.49;100.00;98210.66;5063279;28;20491;-89
2022/08/21 08:53:28;;;;;;;11.60;1.73;;;;;;;17.78;100.00;98197.06;5065801;28;20029;-90
2022/08/21 08:55:55;;;;;;;10.18;1.90;;;;;;;17.48;100.00;98200.19;5065280;28;20212;-94
2022/08/21 08:58:32;;;;;;;9.63;1.60;;;;;;;17.62;100.00;98208.34;5068508;28;20107;-96
2022/08/21 09:01:22;;;;;;;9.20;1.67;;;;;;;18.01;100.00;98196.84;5065999;28;20020;-94
2022/08/21 09:03:51;;;;;;;8.27;1.70;;;;;;;17.87;100.00;98193.97;5072854;22;20050;-95
2022/08/21 09:06:40;;;;;;;11.93;2.33;;;;;;;17.45;100.00;98210.88;5026370;28;20030;-94
2022/08/21 09:09:29;;;;;;;10.15;1.70;;;;;;;17.86;100.00;98206.31;5026194;28;20044;-96
2022/08/21 09:11:58;;;;;;;8.23;1.60;;;;;;;18.03;100.00;98212.59;5021057;28;20037;-94
2022/08/21 09:15:02;;;;;;;9.77;1.58;;;;;;;17.53;100.00;98214.03;5027964;28;20022;-95
2022/08/21 09:17:49;;;;;;;10.63;1.67;;;;;;;17.42;100.00;98225.06;5017956;28;20042;-94
2022/08/21 09:20:18;;;;;;;9.02;1.92;;;;;;;17.87;100.00;98220.34;5008286;28;20430;-94
2022/08/21 09:22:56;;;;;;;10.48;1.73;;;;;;;18.06;100.00;98229.16;5007824;28;20203;-95
2022/08/21 09:25:27;;;;;;;9.55;2.20;;;;;;;17.88;100.00;98219.44;5006556;28;20022;-95
2022/08/21 09:27:54;;;;;;;12.07;1.85;;;;;;;18.43;100.00;98226.50;5008703;28;20128;-95
2022/08/21 09:30:28;;;;;;;9.80;1.80;;;;;;;18.96;100.00;98221.25;5009653;28;20409;-95
2022/08/21 09:32:54;;;;;;;10.82;1.83;;;;;;;18.25;100.00;98221.19;5014965;28;20413;-95
2022/08/21 09:35:22;;;;;;;6.30;1.40;;;;;;;18.25;100.00;98220.34;5015180;28;20121;-94
2022/08/21 09:38:07;;;;;;;9.30;2.05;;;;;;;18.59;100.00;98226.56;5008907;28;20679;-94
2022/08/21 09:40:35;;;;;;;11.38;2.08;;;;;;;18.02;100.00;98234.63;5013991;28;20048;-92
2022/08/21 09:43:22;;;;;;;7.97;1.60;;;;;;;18.26;100.00;98229.97;5008668;28;20029;-93
2022/08/21 09:46:00;;;;;;;6.03;1.70;;;;;;;18.17;100.00;98228.63;5008244;28;20036;-93
2022/08/21 09:48:26;;;;;;;9.82;1.90;;;;;;;18.08;100.00;98224.66;4999344;28;20037;-93
2022/08/21 09:50:53;;;;;;;9.52;1.75;;;;;;;18.02;100.00;98218.81;5006529;28;20030;-95
2022/08/21 09:53:30;;;;;;;8.73;1.85;;;;;;;18.10;100.00;98218.44;5004958;28;20030;-93
2022/08/21 09:58:44;;;;;;;11.55;2.20;;;;;;;18.74;100.00;98217.00;5007172;28;20125;-93
2022/08/21 10:01:28;;;;;;;6.65;1.85;;;;;;;18.51;100.00;98219.03;5000038;28;20030;-94
2022/08/21 10:04:10;;;;;;;8.32;1.55;;;;;;;18.32;100.00;98228.81;5018831;28;20061;-93
2022/08/21 10:06:36;;;;;;;10.93;1.88;;;;;;;18.47;100.00;98220.13;5019900;28;20050;-93
2022/08/21 10:09:14;;;;;;;8.32;1.92;;;;;;;18.15;100.00;98224.34;5011591;28;20041;-94
2022/08/21 10:11:49;;;;;;;8.65;1.90;;;;;;;18.49;100.00;98218.25;5012097;28;20124;-96
2022/08/21 10:14:38;;;;;;;9.32;1.60;;;;;;;18.88;100.00;98216.34;5002695;28;20087;-95
2022/08/21 10:17:19;;;;;;;7.72;1.85;;;;;;;19.45;100.00;98227.41;5019941;28;20041;-95
2022/08/21 10:20:06;;;;;;;10.90;1.85;;;;;;;19.40;100.00;98221.53;5020130;28;20051;-95
2022/08/21 10:22:46;;;;;;;7.55;1.67;;;;;;;20.12;100.00;98210.56;5021702;28;20037;-96
2022/08/21 10:25:23;;;;;;;9.65;1.70;;;;;;;21.08;100.00;98212.94;5009060;28;20028;-93
2022/08/21 10:28:31;;;;;;;6.75;1.63;;;;;;;21.18;100.00;98218.53;5005019;28;20072;-95
2022/08/21 10:31:31;;;;;;;9.80;1.70;;;;;;;21.27;100.00;98212.69;5001678;28;20026;-94
2022/08/21 10:34:00;;;;;;;8.43;1.70;;;;;;;21.94;100.00;98204.09;5010708;28;20093;-94
2022/08/21 10:36:37;;;;;;;7.15;1.45;;;;;;;21.22;100.00;98206.81;5025949;28;20033;-94
2022/08/21 10:39:20;;;;;;;8.63;1.67;;;;;;;21.33;100.00;98222.91;5004645;28;20049;-93
2022/08/21 10:42:09;;;;;;;10.32;2.28;;;;;;;20.24;100.00;98207.22;5007177;28;20044;-94
2022/08/21 10:44:38;;;;;;;9.15;1.80;;;;;;;20.46;100.00;98206.81;5006086;28;20026;-94
2022/08/21 10:47:26;;;;;;;8.50;1.83;;;;;;;21.40;100.00;98213.59;5024813;28;20068;-93
2022/08/21 10:50:14;;;;;;;9.23;2.10;;;;;;;21.38;100.00;98215.53;5016500;28;20034;-92
2022/08/21 10:52:58;;;;;;;9.73;1.63;;;;;;;21.82;100.00;98208.38;5000770;28;20036;-92
2022/08/21 10:55:40;;;;;;;7.07;1.50;;;;;;;21.84;100.00;98209.16;5002977;28;20830;-94
2022/08/21 10:58:30;;;;;;;8.45;1.73;;;;;;;21.49;100.00;98214.84;5003798;28;20076;-95
2022/08/21 11:01:03;;;;;;;9.93;1.83;;;;;;;20.55;100.00;98209.88;5005662;28;20121;-95
2022/08/21 11:03:35;;;;;;;6.20;1.55;;;;;;;19.81;100.00;98222.03;5008936;28;20492;-93
2022/08/21 11:06:25;;;;;;;7.22;1.67;;;;;;;20.57;100.00;98210.63;5001127;28;20052;-92
2022/08/21 11:08:56;;;;;;;6.55;1.55;;;;;;;20.39;100.00;98205.47;5005033;28;20041;-94
2022/08/21 11:11:34;;;;;;;7.97;1.40;;;;;;;21.16;100.00;98205.38;5024457;28;20260;-93
2022/08/21 11:14:02;;;;;;;7.68;1.65;;;;;;;19.01;100.00;98222.72;5007279;28;20056;-92
2022/08/21 11:16:33;;;;;;;10.27;1.80;;;;;;;19.43;100.00;98229.28;5010172;28;20041;-93
2022/08/21 11:19:08;;;;;;;9.43;1.95;;;;;;;19.37;100.00;98234.91;5036398;28;20108;-93
2022/08/21 11:21:53;;;;;;;9.82;1.80;;;;;;;19.85;100.00;98235.00;5046333;28;20029;-93
2022/08/21 11:24:47;;;;;;;9.73;1.95;;;;;;;19.50;100.00;98244.81;5011700;28;20026;-94
2022/08/21 11:27:28;;;;;;;10.15;1.70;;;;;;;19.93;100.00;98229.25;5006831;28;20187;-95
2022/08/21 11:29:57;;;;;;;7.13;1.90;;;;;;;19.96;100.00;98234.41;5027364;28;20018;-95
2022/08/21 11:32:41;;;;;;;11.00;2.08;;;;;;;21.07;100.00;98238.63;5041294;28;20121;-93